createdAt,value
2023-04-27T00:00:50.281Z,99.33
2023-04-27T00:03:20.374Z,97.93
2023-04-27T00:05:49.053Z,97.69
2023-04-27T00:08:17.538Z,97.41
2023-04-27T00:10:45.909Z,97.48
2023-04-27T00:13:14.250Z,97.04
2023-04-27T00:15:42.804Z,96.85
2023-04-27T00:18:11.187Z,95.63
2023-04-27T00:20:41.125Z,96.60
2023-04-27T00:23:09.561Z,95.51
2023-04-27T00:25:38.025Z,94.18
2023-04-27T00:28:06.645Z,94.41
2023-04-27T00:30:35.844Z,94.31
2023-04-27T00:33:04.548Z,95.87
2023-04-27T00:35:33.707Z,98.26
2023-04-27T00:38:03.697Z,97.21
2023-04-27T00:40:32.280Z,96.59
2023-04-27T00:43:00.977Z,96.74
2023-04-27T00:45:29.508Z,96.21
2023-04-27T00:47:58.169Z,97.00
2023-04-27T00:50:29.561Z,96.60
2023-04-27T00:52:58.422Z,97.32
2023-04-27T00:55:28.242Z,99.08
2023-04-27T00:57:57.063Z,99.33
2023-04-27T01:00:26.130Z,99.73
2023-04-27T01:02:56.524Z,99.71
2023-04-27T01:05:26.122Z,100.00
2023-04-27T01:07:54.734Z,100.00
2023-04-27T01:10:23.361Z,100.00
2023-04-27T01:12:53.503Z,100.00
2023-04-27T01:15:21.920Z,100.00
2023-04-27T01:17:50.802Z,100.00
2023-04-27T01:20:20.255Z,100.00
2023-04-27T01:22:48.928Z,100.00
2023-04-27T01:25:20.038Z,100.00
2023-04-27T01:27:48.504Z,100.00
2023-04-27T01:30:17.086Z,100.00
2023-04-27T01:32:45.542Z,100.00
2023-04-27T01:35:14.139Z,100.00
2023-04-27T01:37:42.586Z,100.00
2023-04-27T01:40:13.004Z,100.00
2023-04-27T01:42:42.760Z,100.00
2023-04-27T01:45:12.592Z,100.00
2023-04-27T01:47:41.125Z,100.00
2023-04-27T01:50:10.365Z,100.00
2023-04-27T01:52:40.946Z,100.00
2023-04-27T01:55:09.827Z,100.00
2023-04-27T01:57:39.094Z,100.00
2023-04-27T02:00:10.385Z,100.00
2023-04-27T02:02:53.482Z,100.00
2023-04-27T02:05:22.585Z,100.00
2023-04-27T02:07:51.199Z,100.00
2023-04-27T02:10:21.168Z,100.00
2023-04-27T02:12:50.194Z,100.00
2023-04-27T02:15:19.994Z,100.00
2023-04-27T02:17:48.542Z,100.00
2023-04-27T02:20:17.000Z,100.00
2023-04-27T02:22:48.342Z,100.00
2023-04-27T02:25:16.769Z,100.00
2023-04-27T02:27:45.068Z,100.00
2023-04-27T02:30:15.804Z,100.00
2023-04-27T02:32:46.259Z,100.00
2023-04-27T02:35:14.776Z,100.00
2023-04-27T02:37:43.350Z,100.00
2023-04-27T02:40:12.563Z,100.00
2023-04-27T02:42:40.922Z,100.00
2023-04-27T02:45:09.892Z,100.00
2023-04-27T02:47:38.304Z,100.00
2023-04-27T02:50:10.498Z,100.00
2023-04-27T02:52:38.848Z,100.00
2023-04-27T02:55:08.028Z,100.00
2023-04-27T02:57:36.552Z,100.00
2023-04-27T03:00:07.493Z,100.00
2023-04-27T03:02:36.117Z,100.00
2023-04-27T03:05:05.318Z,100.00
2023-04-27T03:07:35.412Z,100.00
2023-04-27T03:10:06.000Z,100.00
2023-04-27T03:12:34.543Z,100.00
2023-04-27T03:15:02.982Z,100.00
2023-04-27T03:17:32.057Z,100.00
2023-04-27T03:20:00.624Z,100.00
2023-04-27T03:22:29.244Z,100.00
2023-04-27T03:24:59.247Z,100.00
2023-04-27T03:27:27.630Z,100.00
2023-04-27T03:29:56.011Z,100.00
2023-04-27T03:32:24.337Z,100.00
2023-04-27T03:34:53.274Z,100.00
2023-04-27T03:37:21.723Z,100.00
2023-04-27T03:39:50.039Z,100.00
2023-04-27T03:42:20.135Z,100.00
2023-04-27T03:44:48.534Z,100.00
2023-04-27T03:47:16.954Z,100.00
2023-04-27T03:49:46.172Z,100.00
2023-04-27T03:52:14.617Z,100.00
2023-04-27T03:54:43.395Z,100.00
2023-04-27T03:57:13.306Z,100.00
2023-04-27T03:59:43.105Z,100.00
2023-04-27T04:02:11.755Z,100.00
2023-04-27T04:04:40.354Z,100.00
2023-04-27T04:07:08.895Z,100.00
2023-04-27T04:09:37.422Z,100.00
2023-04-27T04:12:06.651Z,100.00
2023-04-27T04:14:35.054Z,100.00
2023-04-27T04:17:04.857Z,100.00
2023-04-27T04:19:34.974Z,100.00
2023-04-27T04:22:03.587Z,100.00
2023-04-27T04:24:32.069Z,100.00
2023-04-27T04:27:01.170Z,100.00
2023-04-27T04:29:29.592Z,100.00
2023-04-27T04:31:57.966Z,100.00
2023-04-27T04:34:29.132Z,100.00
2023-04-27T04:36:58.173Z,100.00
2023-04-27T04:39:27.091Z,100.00
2023-04-27T04:41:55.492Z,100.00
2023-04-27T04:44:25.341Z,100.00
2023-04-27T04:46:55.320Z,100.00
2023-04-27T04:49:28.859Z,100.00
2023-04-27T04:51:57.424Z,100.00
2023-04-27T04:54:26.099Z,100.00
2023-04-27T04:56:56.459Z,100.00
2023-04-27T04:59:27.306Z,100.00
2023-04-27T05:01:56.051Z,100.00
2023-04-27T05:04:24.732Z,100.00
2023-04-27T05:06:54.645Z,100.00
2023-04-27T05:09:23.553Z,100.00
2023-04-27T05:11:51.914Z,100.00
2023-04-27T05:14:20.360Z,100.00
2023-04-27T05:16:49.312Z,100.00
2023-04-27T05:19:18.456Z,100.00
2023-04-27T05:21:46.896Z,100.00
2023-04-27T05:24:16.589Z,100.00
2023-04-27T05:26:44.956Z,100.00
2023-04-27T05:29:13.429Z,100.00
2023-04-27T05:31:41.920Z,100.00
2023-04-27T05:34:10.405Z,100.00
2023-04-27T05:36:38.870Z,100.00
2023-04-27T05:39:07.846Z,100.00
2023-04-27T05:41:37.622Z,100.00
2023-04-27T05:44:06.461Z,100.00
2023-04-27T05:46:37.925Z,100.00
2023-04-27T05:49:07.059Z,100.00
2023-04-27T05:51:38.162Z,100.00
2023-04-27T05:54:06.827Z,100.00
2023-04-27T05:56:35.401Z,100.00
2023-04-27T05:59:05.155Z,98.60
2023-04-27T06:01:33.527Z,94.00
2023-04-27T06:04:02.789Z,89.11
2023-04-27T06:06:33.367Z,85.00
2023-04-27T06:09:01.807Z,76.39
2023-04-27T06:11:30.256Z,73.02
2023-04-27T06:13:58.665Z,70.43
2023-04-27T06:16:28.564Z,68.95
2023-04-27T06:18:56.969Z,66.18
2023-04-27T06:21:25.314Z,63.00
2023-04-27T06:23:53.644Z,62.51
2023-04-27T06:26:21.970Z,60.82
2023-04-27T06:28:50.437Z,60.20
2023-04-27T06:31:18.932Z,62.28
2023-04-27T06:33:48.759Z,60.59
2023-04-27T06:36:17.196Z,57.33
2023-04-27T06:38:45.642Z,55.05
2023-04-27T06:41:14.327Z,54.21
2023-04-27T06:43:42.710Z,53.81
2023-04-27T06:46:11.126Z,53.09
2023-04-27T06:48:39.541Z,52.84
2023-04-27T06:51:09.334Z,52.28
2023-04-27T06:53:37.750Z,52.59
2023-04-27T06:56:07.083Z,51.60
2023-04-27T06:58:35.504Z,51.64
2023-04-27T07:01:04.016Z,50.97
2023-04-27T07:03:36.374Z,48.71
2023-04-27T07:06:05.747Z,48.21
2023-04-27T07:13:27.670Z,45.40
2023-04-27T07:15:57.867Z,43.52
2023-04-27T07:18:28.037Z,42.18
2023-04-27T07:20:57.839Z,40.82
2023-04-27T07:23:26.675Z,40.94
2023-04-27T07:25:55.050Z,40.01
2023-04-27T07:28:23.420Z,39.89
2023-04-27T07:30:53.109Z,38.69
2023-04-27T07:33:22.198Z,37.46
2023-04-27T07:35:51.350Z,34.83
2023-04-27T07:38:19.906Z,34.58
2023-04-27T07:40:48.302Z,35.06
2023-04-27T07:43:17.805Z,34.19
2023-04-27T07:45:46.180Z,34.77
2023-04-27T07:48:16.404Z,34.20
2023-04-27T07:50:44.768Z,35.48
2023-04-27T07:53:13.129Z,37.73
2023-04-27T07:55:43.699Z,37.63
2023-04-27T07:58:12.143Z,36.82
2023-04-27T08:00:40.569Z,36.80
2023-04-27T08:03:09.390Z,37.11
2023-04-27T08:05:39.577Z,38.23
2023-04-27T08:08:08.208Z,38.22
2023-04-27T08:10:38.086Z,37.41
2023-04-27T08:13:09.708Z,36.32
2023-04-27T08:15:38.275Z,36.37
2023-04-27T08:18:06.880Z,35.52
2023-04-27T08:20:35.917Z,33.49
2023-04-27T08:23:05.652Z,33.09
2023-04-27T08:25:33.977Z,34.05
2023-04-27T08:28:02.290Z,33.11
2023-04-27T08:30:30.723Z,32.35
2023-04-27T08:32:59.235Z,32.66
2023-04-27T08:35:27.599Z,32.72
2023-04-27T08:37:56.372Z,31.71
2023-04-27T08:40:26.172Z,31.58
2023-04-27T08:42:56.652Z,31.59
2023-04-27T08:45:26.307Z,31.70
2023-04-27T08:47:54.850Z,32.25
2023-04-27T08:50:25.485Z,31.75
2023-04-27T08:52:54.045Z,31.08
2023-04-27T08:55:23.561Z,31.63
2023-04-27T08:57:57.563Z,30.63
2023-04-27T09:00:27.161Z,30.82
2023-04-27T09:02:55.699Z,30.31
2023-04-27T09:05:24.439Z,29.12
2023-04-27T09:08:00.708Z,29.83
2023-04-27T09:10:29.933Z,30.17
2023-04-27T09:13:01.361Z,29.73
2023-04-27T09:15:29.857Z,28.55
2023-04-27T09:17:59.178Z,29.02
2023-04-27T09:20:28.527Z,28.52
2023-04-27T09:22:58.221Z,28.98
2023-04-27T09:25:28.951Z,28.63
2023-04-27T09:27:58.523Z,29.19
2023-04-27T09:30:29.632Z,29.19
2023-04-27T09:32:59.619Z,29.02
2023-04-27T09:35:30.561Z,29.07
2023-04-27T09:37:59.635Z,30.03
2023-04-27T09:40:30.629Z,29.50
2023-04-27T09:43:01.520Z,29.96
2023-04-27T09:45:31.593Z,30.18
2023-04-27T09:48:01.776Z,29.64
2023-04-27T09:50:30.273Z,29.94
2023-04-27T09:52:58.940Z,29.39
2023-04-27T09:55:32.818Z,29.16
2023-04-27T09:58:18.892Z,29.34
2023-04-27T10:01:01.229Z,29.35
2023-04-27T10:03:34.232Z,28.68
2023-04-27T10:06:38.348Z,28.55
2023-04-27T10:09:06.990Z,28.66
2023-04-27T10:11:40.514Z,29.13
2023-04-27T10:14:11.012Z,29.34
2023-04-27T10:16:47.465Z,29.38
2023-04-27T10:19:16.546Z,29.50
2023-04-27T10:21:56.946Z,29.54
2023-04-27T10:24:38.162Z,29.61
2023-04-27T10:27:08.706Z,29.07
2023-04-27T10:29:39.085Z,30.12
2023-04-27T10:32:10.417Z,29.29
2023-04-27T10:34:39.442Z,29.51
2023-04-27T10:37:10.173Z,29.13
2023-04-27T10:39:48.731Z,28.62
2023-04-27T10:42:28.147Z,28.55
2023-04-27T10:44:58.526Z,28.65
2023-04-27T10:47:38.901Z,28.90
2023-04-27T10:50:11.419Z,28.94
2023-04-27T10:52:42.337Z,28.38
2023-04-27T10:55:21.463Z,28.82
2023-04-27T10:57:51.588Z,28.80
2023-04-27T11:00:25.202Z,28.70
2023-04-27T11:03:12.143Z,28.82
2023-04-27T11:05:41.221Z,28.87
2023-04-27T11:08:11.308Z,29.11
2023-04-27T11:10:41.568Z,29.48
2023-04-27T11:13:21.729Z,28.80
2023-04-27T11:15:51.529Z,29.04
2023-04-27T11:18:23.171Z,29.52
2023-04-27T11:20:55.803Z,29.91
2023-04-27T11:23:30.143Z,29.62
2023-04-27T11:25:59.414Z,29.49
2023-04-27T11:28:27.826Z,29.96
2023-04-27T11:31:00.031Z,29.41
2023-04-27T11:33:43.052Z,29.43
2023-04-27T11:36:18.700Z,29.24
2023-04-27T11:38:47.238Z,29.07
2023-04-27T11:41:17.822Z,29.07
2023-04-27T11:43:49.048Z,29.64
2023-04-27T11:46:21.498Z,29.64
2023-04-27T11:48:51.300Z,29.95
2023-04-27T11:51:26.542Z,29.54
2023-04-27T11:53:54.959Z,29.89
2023-04-27T11:56:23.608Z,29.69
2023-04-27T11:58:51.926Z,30.79
2023-04-27T12:01:27.659Z,30.82
2023-04-27T12:04:12.662Z,31.26
2023-04-27T12:06:41.313Z,30.33
2023-04-27T12:09:10.016Z,29.74
2023-04-27T12:11:43.721Z,29.06
2023-04-27T12:14:19.315Z,29.48
2023-04-27T12:16:47.712Z,29.02
2023-04-27T12:19:17.546Z,29.74
2023-04-27T12:22:04.546Z,28.76
2023-04-27T12:24:33.190Z,28.35
2023-04-27T12:27:03.143Z,29.05
2023-04-27T12:29:32.608Z,28.53
2023-04-27T12:34:44.909Z,28.99
2023-04-27T12:37:13.320Z,28.37
2023-04-27T12:39:41.881Z,28.07
2023-04-27T12:42:18.693Z,28.90
2023-04-27T12:44:47.448Z,28.14
2023-04-27T12:47:27.846Z,29.31
2023-04-27T12:50:13.720Z,29.94
2023-04-27T12:52:42.153Z,30.08
2023-04-27T12:55:24.840Z,30.66
2023-04-27T12:58:24.233Z,30.29
2023-04-27T13:00:52.750Z,29.93
2023-04-27T13:03:21.348Z,29.72
2023-04-27T13:06:06.543Z,29.17
2023-04-27T13:08:34.916Z,28.60
2023-04-27T13:11:03.322Z,28.87
2023-04-27T13:13:31.818Z,28.70
2023-04-27T13:16:26.428Z,29.25
2023-04-27T13:18:55.696Z,28.72
2023-04-27T13:21:31.782Z,29.52
2023-04-27T13:24:00.803Z,29.22
2023-04-27T13:26:29.253Z,29.82
2023-04-27T13:28:57.978Z,29.64
2023-04-27T13:31:27.109Z,29.40
2023-04-27T13:33:55.930Z,29.20
2023-04-27T13:36:25.643Z,29.52
2023-04-27T13:38:54.058Z,29.36
2023-04-27T13:41:22.454Z,29.47
2023-04-27T13:43:51.018Z,30.00
2023-04-27T13:46:20.044Z,30.46
2023-04-27T13:48:48.676Z,31.25
2023-04-27T13:51:17.158Z,31.60
2023-04-27T13:53:46.937Z,32.32
2023-04-27T13:56:15.301Z,32.94
2023-04-27T13:58:43.746Z,33.26
2023-04-27T14:01:13.117Z,33.88
2023-04-27T14:03:43.334Z,33.90
2023-04-27T14:06:12.142Z,33.46
2023-04-27T14:08:40.952Z,33.57
2023-04-27T14:11:18.611Z,33.81
2023-04-27T14:13:48.052Z,33.84
2023-04-27T14:16:16.462Z,33.86
2023-04-27T14:18:45.148Z,34.32
2023-04-27T14:21:17.134Z,34.47
2023-04-27T14:23:46.480Z,34.83
2023-04-27T14:26:16.164Z,34.64
2023-04-27T14:28:44.757Z,34.98
2023-04-27T14:31:13.094Z,35.06
2023-04-27T14:33:44.939Z,35.66
2023-04-27T14:36:13.462Z,35.36
2023-04-27T14:38:41.821Z,35.87
2023-04-27T14:41:10.194Z,36.06
2023-04-27T14:43:44.689Z,36.26
2023-04-27T14:46:20.765Z,36.57
2023-04-27T14:48:50.127Z,36.37
2023-04-27T14:51:18.550Z,36.50
2023-04-27T14:53:46.943Z,36.13
2023-04-27T14:56:23.172Z,36.38
2023-04-27T14:58:52.896Z,36.67
2023-04-27T15:01:21.401Z,36.64
2023-04-27T15:03:50.927Z,37.02
2023-04-27T15:06:19.553Z,36.97
2023-04-27T15:08:48.449Z,37.80
2023-04-27T15:11:17.270Z,37.46
2023-04-27T15:13:45.732Z,37.50
2023-04-27T15:16:15.916Z,37.69
2023-04-27T15:18:54.615Z,39.60
2023-04-27T15:21:23.307Z,39.27
2023-04-27T15:23:51.700Z,39.56
2023-04-27T15:26:20.046Z,39.32
2023-04-27T15:28:49.793Z,38.39
2023-04-27T15:31:19.656Z,38.47
2023-04-27T15:33:48.104Z,38.42
2023-04-27T15:36:17.418Z,38.31
2023-04-27T15:38:45.784Z,38.33
2023-04-27T15:41:14.126Z,38.30
2023-04-27T15:43:42.432Z,38.46
2023-04-27T15:46:11.405Z,38.15
2023-04-27T15:48:41.380Z,39.05
2023-04-27T15:51:10.398Z,38.86
2023-04-27T15:53:39.078Z,38.90
2023-04-27T15:56:32.368Z,39.10
2023-04-27T15:59:00.767Z,39.54
2023-04-27T16:01:29.449Z,39.30
2023-04-27T16:03:59.297Z,39.86
2023-04-27T16:06:33.237Z,39.45
2023-04-27T16:09:03.218Z,39.42
2023-04-27T16:11:36.382Z,39.52
2023-04-27T16:14:05.702Z,39.93
2023-04-27T16:16:34.207Z,40.31
2023-04-27T16:19:04.046Z,40.31
2023-04-27T16:21:32.448Z,40.14
2023-04-27T16:24:01.985Z,40.39
2023-04-27T16:26:30.399Z,40.23
2023-04-27T16:28:58.764Z,40.32
2023-04-27T16:31:27.195Z,40.30
2023-04-27T16:33:56.459Z,40.94
2023-04-27T16:36:35.744Z,40.44
2023-04-27T16:39:05.088Z,40.39
2023-04-27T16:41:33.670Z,40.95
2023-04-27T16:44:02.265Z,41.02
2023-04-27T16:46:33.852Z,41.29
2023-04-27T16:49:03.645Z,41.29
2023-04-27T16:51:33.732Z,41.37
2023-04-27T16:54:02.519Z,41.24
2023-04-27T16:56:32.563Z,41.15
2023-04-27T16:59:12.099Z,41.44
2023-04-27T17:01:40.823Z,42.13
2023-04-27T17:04:09.355Z,41.73
2023-04-27T17:06:40.773Z,41.95
2023-04-27T17:09:18.397Z,42.25
2023-04-27T17:11:46.764Z,42.92
2023-04-27T17:14:15.187Z,43.49
2023-04-27T17:16:43.541Z,43.23
2023-04-27T17:19:13.690Z,43.23
2023-04-27T17:21:43.583Z,42.83
2023-04-27T17:24:11.911Z,43.28
2023-04-27T17:26:40.467Z,43.40
2023-04-27T17:29:08.788Z,44.33
2023-04-27T17:31:37.187Z,44.63
2023-04-27T17:34:06.488Z,44.50
2023-04-27T17:36:35.321Z,44.98
2023-04-27T17:39:05.868Z,45.73
2023-04-27T17:41:36.726Z,45.65
2023-04-27T17:44:10.252Z,45.98
2023-04-27T17:46:38.984Z,46.41
2023-04-27T17:49:07.510Z,46.16
2023-04-27T17:51:35.912Z,46.21
2023-04-27T17:54:23.494Z,45.96
2023-04-27T17:56:51.877Z,45.68
2023-04-27T17:59:20.411Z,46.21
2023-04-27T18:01:48.984Z,46.61
2023-04-27T18:04:17.470Z,45.86
2023-04-27T18:06:45.938Z,45.89
2023-04-27T18:09:14.646Z,45.89
2023-04-27T18:11:44.692Z,45.65
2023-04-27T18:14:13.210Z,46.26
2023-04-27T18:16:51.594Z,46.55
2023-04-27T18:19:20.135Z,46.56
2023-04-27T18:21:48.494Z,46.85
2023-04-27T18:24:16.890Z,47.11
2023-04-27T18:26:54.107Z,47.03
2023-04-27T18:29:29.074Z,46.77
2023-04-27T18:31:58.382Z,46.97
2023-04-27T18:34:26.860Z,46.85
2023-04-27T18:36:57.911Z,47.12
2023-04-27T18:39:26.636Z,47.31
2023-04-27T18:41:57.161Z,47.61
2023-04-27T18:44:25.573Z,47.70
2023-04-27T18:46:53.958Z,48.08
2023-04-27T18:49:32.328Z,48.52
2023-04-27T18:52:00.966Z,48.38
2023-04-27T18:54:29.318Z,48.94
2023-04-27T18:56:59.154Z,48.82
2023-04-27T18:59:27.707Z,49.01
2023-04-27T19:01:56.182Z,48.89
2023-04-27T19:04:25.763Z,49.48
2023-04-27T19:06:54.344Z,49.47
2023-04-27T19:09:22.677Z,49.69
2023-04-27T19:12:01.990Z,49.53
2023-04-27T19:14:33.271Z,49.47
2023-04-27T19:17:01.892Z,50.08
2023-04-27T19:19:30.356Z,51.36
2023-04-27T19:21:59.749Z,51.71
2023-04-27T19:24:28.381Z,52.19
2023-04-27T19:26:56.760Z,51.91
2023-04-27T19:29:26.484Z,51.66
2023-04-27T19:31:56.679Z,51.56
2023-04-27T19:34:25.040Z,50.54
2023-04-27T19:36:53.552Z,50.74
2023-04-27T19:39:21.920Z,50.80
2023-04-27T19:41:50.306Z,50.72
2023-04-27T19:44:18.788Z,50.62
2023-04-27T19:46:47.238Z,50.68
2023-04-27T19:49:17.009Z,50.83
2023-04-27T19:51:46.541Z,51.04
2023-04-27T19:54:15.224Z,51.22
2023-04-27T19:56:43.714Z,51.53
2023-04-27T19:59:12.148Z,51.73
2023-04-27T20:01:40.615Z,51.93
2023-04-27T20:04:09.234Z,52.09
2023-04-27T20:06:40.764Z,52.43
2023-04-27T20:09:09.175Z,52.15
2023-04-27T20:11:37.765Z,52.52
2023-04-27T20:14:06.295Z,52.73
2023-04-27T20:16:34.784Z,51.39
2023-04-27T20:19:05.176Z,51.35
2023-04-27T20:21:33.798Z,51.18
2023-04-27T20:24:03.483Z,51.19
2023-04-27T20:26:31.804Z,51.20
2023-04-27T20:29:00.171Z,50.98
2023-04-27T20:31:28.848Z,50.70
2023-04-27T20:33:57.241Z,50.45
2023-04-27T20:36:26.177Z,50.23
2023-04-27T20:38:54.625Z,50.05
2023-04-27T20:41:25.599Z,50.28
2023-04-27T20:43:54.042Z,50.22
2023-04-27T20:46:22.416Z,50.52
2023-04-27T20:48:50.774Z,50.60
2023-04-27T20:51:19.487Z,50.72
2023-04-27T20:53:48.178Z,50.60
2023-04-27T20:56:16.775Z,50.85
2023-04-27T20:58:46.782Z,51.42
2023-04-27T21:01:15.171Z,51.08
2023-04-27T21:03:43.677Z,51.13
2023-04-27T21:06:12.572Z,50.62
2023-04-27T21:08:41.748Z,50.88
2023-04-27T21:11:10.145Z,50.81
2023-04-27T21:13:39.004Z,51.36
2023-04-27T21:16:08.825Z,50.52
2023-04-27T21:18:37.182Z,51.33
2023-04-27T21:21:05.811Z,51.54
2023-04-27T21:23:35.307Z,50.98
2023-04-27T21:26:03.701Z,51.13
2023-04-27T21:28:32.454Z,51.03
2023-04-27T21:31:01.071Z,50.90
2023-04-27T21:33:31.990Z,51.14
2023-04-27T21:36:00.429Z,50.93
2023-04-27T21:38:28.813Z,51.28
2023-04-27T21:40:57.214Z,51.78
2023-04-27T21:43:26.196Z,51.71
2023-04-27T21:45:55.036Z,51.86
2023-04-27T21:48:23.934Z,52.20
2023-04-27T21:50:53.888Z,52.29
2023-04-27T21:53:23.026Z,53.08
2023-04-27T21:55:51.643Z,53.76
2023-04-27T21:58:20.004Z,55.97
2023-04-27T22:00:48.673Z,58.42
2023-04-27T22:03:17.412Z,62.55
2023-04-27T22:05:48.729Z,65.50
2023-04-27T22:08:18.518Z,64.97
2023-04-27T22:10:47.069Z,65.65
2023-04-27T22:13:18.744Z,69.44
2023-04-27T22:15:48.140Z,70.44
2023-04-27T22:18:16.873Z,71.12
2023-04-27T22:20:45.932Z,73.84
2023-04-27T22:23:14.454Z,68.64
2023-04-27T22:25:44.361Z,68.78
2023-04-27T22:28:13.354Z,71.82
2023-04-27T22:30:42.032Z,71.12
2023-04-27T22:33:11.417Z,71.46
2023-04-27T22:35:39.847Z,72.74
2023-04-27T22:38:08.413Z,75.88
2023-04-27T22:40:37.219Z,79.71
2023-04-27T22:43:06.961Z,80.60
2023-04-27T22:45:36.723Z,75.63
2023-04-27T22:48:07.742Z,85.24
2023-04-27T22:50:36.363Z,85.97
2023-04-27T22:53:04.741Z,90.23
2023-04-27T22:55:33.144Z,96.29
2023-04-27T22:58:01.859Z,97.81
2023-04-27T23:00:31.615Z,97.49
2023-04-27T23:03:00.127Z,100.00
2023-04-27T23:05:29.202Z,100.00
2023-04-27T23:07:57.569Z,100.00
2023-04-27T23:10:26.656Z,100.00
2023-04-27T23:12:57.058Z,100.00
2023-04-27T23:15:25.669Z,100.00
2023-04-27T23:17:55.410Z,100.00
2023-04-27T23:20:28.880Z,100.00
2023-04-27T23:22:57.857Z,100.00
2023-04-27T23:25:26.290Z,100.00
2023-04-27T23:27:54.804Z,100.00
2023-04-27T23:30:23.333Z,100.00
2023-04-27T23:32:51.930Z,100.00
2023-04-27T23:35:22.392Z,100.00
2023-04-27T23:37:50.792Z,100.00
2023-04-27T23:40:19.375Z,100.00
2023-04-27T23:42:49.127Z,100.00
2023-04-27T23:45:19.320Z,100.00
2023-04-27T23:47:47.708Z,100.00
2023-04-27T23:50:16.664Z,100.00
2023-04-27T23:52:46.363Z,100.00
2023-04-27T23:55:15.021Z,100.00
2023-04-27T23:57:44.323Z,100.00
